sensor_id;sensor_type;location;lat;lon;timestamp;P1;durP1;ratioP1;P2;durP2;ratioP2
55220;SDS011;41089;51.448;6.604;2024-01-27T00:03:32;16.65;;;4.00;;
55220;SDS011;41089;51.448;6.604;2024-01-27T00:09:32;17.65;;;3.67;;
55220;SDS011;41089;51.448;6.604;2024-01-27T00:15:33;24.80;;;4.57;;
55220;SDS011;41089;51.448;6.604;2024-01-27T00:21:33;16.80;;;4.22;;
55220;SDS011;41089;51.448;6.604;2024-01-27T00:27:34;18.50;;;4.20;;
55220;SDS011;41089;51.448;6.604;2024-01-27T00:33:34;18.77;;;4.28;;
55220;SDS011;41089;51.448;6.604;2024-01-27T00:39:36;16.95;;;4.32;;
55220;SDS011;41089;51.448;6.604;2024-01-27T00:45:36;17.70;;;5.10;;
55220;SDS011;41089;51.448;6.604;2024-01-27T00:51:36;18.15;;;4.30;;
55220;SDS011;41089;51.448;6.604;2024-01-27T00:57:37;19.50;;;5.50;;
55220;SDS011;41089;51.448;6.604;2024-01-27T01:03:40;14.35;;;4.88;;
55220;SDS011;41089;51.448;6.604;2024-01-27T01:09:40;24.77;;;4.78;;
55220;SDS011;41089;51.448;6.604;2024-01-27T01:15:40;17.65;;;4.55;;
55220;SDS011;41089;51.448;6.604;2024-01-27T01:21:41;14.93;;;4.18;;
55220;SDS011;41089;51.448;6.604;2024-01-27T01:27:41;15.98;;;4.78;;
55220;SDS011;41089;51.448;6.604;2024-01-27T01:33:42;19.38;;;4.65;;
55220;SDS011;41089;51.448;6.604;2024-01-27T01:39:42;15.32;;;4.40;;
55220;SDS011;41089;51.448;6.604;2024-01-27T01:45:44;16.38;;;5.05;;
55220;SDS011;41089;51.448;6.604;2024-01-27T01:51:44;17.20;;;4.57;;
55220;SDS011;41089;51.448;6.604;2024-01-27T01:57:44;14.73;;;5.03;;
55220;SDS011;41089;51.448;6.604;2024-01-27T02:03:56;21.83;;;5.07;;
55220;SDS011;41089;51.448;6.604;2024-01-27T02:09:57;17.90;;;4.80;;
55220;SDS011;41089;51.448;6.604;2024-01-27T02:15:57;14.35;;;5.00;;
55220;SDS011;41089;51.448;6.604;2024-01-27T02:21:58;17.42;;;4.72;;
55220;SDS011;41089;51.448;6.604;2024-01-27T02:27:58;22.10;;;4.90;;
55220;SDS011;41089;51.448;6.604;2024-01-27T02:33:58;12.10;;;3.88;;
55220;SDS011;41089;51.448;6.604;2024-01-27T02:39:59;14.70;;;4.90;;
55220;SDS011;41089;51.448;6.604;2024-01-27T02:45:59;12.47;;;4.43;;
55220;SDS011;41089;51.448;6.604;2024-01-27T02:52:00;14.75;;;4.43;;
55220;SDS011;41089;51.448;6.604;2024-01-27T02:58:00;22.47;;;4.63;;
55220;SDS011;41089;51.448;6.604;2024-01-27T03:04:01;15.40;;;4.80;;
55220;SDS011;41089;51.448;6.604;2024-01-27T03:10:02;18.98;;;4.88;;
55220;SDS011;41089;51.448;6.604;2024-01-27T03:16:03;17.67;;;4.93;;
55220;SDS011;41089;51.448;6.604;2024-01-27T03:22:08;9.80;;;3.90;;
55220;SDS011;41089;51.448;6.604;2024-01-27T03:28:09;15.73;;;4.67;;
55220;SDS011;41089;51.448;6.604;2024-01-27T03:34:09;17.08;;;4.65;;
55220;SDS011;41089;51.448;6.604;2024-01-27T03:40:09;22.02;;;5.53;;
55220;SDS011;41089;51.448;6.604;2024-01-27T03:46:10;10.77;;;4.30;;
55220;SDS011;41089;51.448;6.604;2024-01-27T03:52:11;12.90;;;5.30;;
55220;SDS011;41089;51.448;6.604;2024-01-27T03:58:11;13.57;;;4.80;;
55220;SDS011;41089;51.448;6.604;2024-01-27T04:04:11;14.45;;;5.50;;
55220;SDS011;41089;51.448;6.604;2024-01-27T04:10:12;15.23;;;4.63;;
55220;SDS011;41089;51.448;6.604;2024-01-27T04:16:13;14.43;;;4.90;;
55220;SDS011;41089;51.448;6.604;2024-01-27T04:22:13;15.10;;;5.73;;
55220;SDS011;41089;51.448;6.604;2024-01-27T04:28:15;15.48;;;5.68;;
55220;SDS011;41089;51.448;6.604;2024-01-27T04:34:16;23.70;;;7.33;;
55220;SDS011;41089;51.448;6.604;2024-01-27T04:40:16;11.85;;;5.07;;
55220;SDS011;41089;51.448;6.604;2024-01-27T04:46:16;21.27;;;8.53;;
55220;SDS011;41089;51.448;6.604;2024-01-27T04:52:17;15.82;;;6.80;;
55220;SDS011;41089;51.448;6.604;2024-01-27T04:58:17;16.42;;;6.38;;
55220;SDS011;41089;51.448;6.604;2024-01-27T05:04:18;14.90;;;7.00;;
55220;SDS011;41089;51.448;6.604;2024-01-27T05:10:18;14.87;;;5.93;;
55220;SDS011;41089;51.448;6.604;2024-01-27T05:16:18;18.80;;;6.50;;
55220;SDS011;41089;51.448;6.604;2024-01-27T05:22:19;17.97;;;5.63;;
55220;SDS011;41089;51.448;6.604;2024-01-27T05:28:19;21.58;;;6.55;;
55220;SDS011;41089;51.448;6.604;2024-01-27T05:34:20;18.00;;;6.28;;
55220;SDS011;41089;51.448;6.604;2024-01-27T05:40:21;19.63;;;6.80;;
55220;SDS011;41089;51.448;6.604;2024-01-27T05:46:21;15.07;;;7.22;;
55220;SDS011;41089;51.448;6.604;2024-01-27T05:52:21;18.27;;;7.90;;
55220;SDS011;41089;51.448;6.604;2024-01-27T05:58:22;21.42;;;6.32;;
55220;SDS011;41089;51.448;6.604;2024-01-27T06:04:22;15.90;;;6.63;;
55220;SDS011;41089;51.448;6.604;2024-01-27T06:10:22;16.67;;;7.63;;
55220;SDS011;41089;51.448;6.604;2024-01-27T06:16:24;19.75;;;7.40;;
55220;SDS011;41089;51.448;6.604;2024-01-27T06:22:25;17.77;;;7.20;;
55220;SDS011;41089;51.448;6.604;2024-01-27T06:28:25;21.92;;;7.97;;
55220;SDS011;41089;51.448;6.604;2024-01-27T06:34:26;20.30;;;7.65;;
55220;SDS011;41089;51.448;6.604;2024-01-27T06:40:26;20.77;;;6.90;;
55220;SDS011;41089;51.448;6.604;2024-01-27T06:46:27;14.90;;;7.18;;
55220;SDS011;41089;51.448;6.604;2024-01-27T06:52:27;18.10;;;6.65;;
55220;SDS011;41089;51.448;6.604;2024-01-27T06:58:28;18.43;;;8.03;;
55220;SDS011;41089;51.448;6.604;2024-01-27T07:04:28;21.73;;;8.10;;
55220;SDS011;41089;51.448;6.604;2024-01-27T07:10:28;19.23;;;6.93;;
55220;SDS011;41089;51.448;6.604;2024-01-27T07:16:29;14.95;;;7.45;;
55220;SDS011;41089;51.448;6.604;2024-01-27T07:22:29;14.13;;;7.30;;
55220;SDS011;41089;51.448;6.604;2024-01-27T07:28:29;12.37;;;6.73;;
55220;SDS011;41089;51.448;6.604;2024-01-27T07:34:30;17.83;;;7.37;;
55220;SDS011;41089;51.448;6.604;2024-01-27T07:40:30;16.08;;;6.57;;
55220;SDS011;41089;51.448;6.604;2024-01-27T07:46:30;15.57;;;6.95;;
55220;SDS011;41089;51.448;6.604;2024-01-27T07:52:31;19.48;;;6.57;;
55220;SDS011;41089;51.448;6.604;2024-01-27T07:58:31;18.93;;;6.50;;
55220;SDS011;41089;51.448;6.604;2024-01-27T08:04:31;19.70;;;7.10;;
55220;SDS011;41089;51.448;6.604;2024-01-27T08:10:32;18.13;;;6.10;;
55220;SDS011;41089;51.448;6.604;2024-01-27T08:16:32;14.23;;;6.22;;
55220;SDS011;41089;51.448;6.604;2024-01-27T08:22:32;22.15;;;6.95;;
55220;SDS011;41089;51.448;6.604;2024-01-27T08:28:33;27.10;;;6.83;;
55220;SDS011;41089;51.448;6.604;2024-01-27T08:34:33;18.92;;;7.05;;
55220;SDS011;41089;51.448;6.604;2024-01-27T08:40:33;22.50;;;7.83;;
55220;SDS011;41089;51.448;6.604;2024-01-27T08:46:34;21.45;;;9.10;;
55220;SDS011;41089;51.448;6.604;2024-01-27T08:52:34;24.35;;;9.60;;
55220;SDS011;41089;51.448;6.604;2024-01-27T08:58:34;26.10;;;7.97;;
55220;SDS011;41089;51.448;6.604;2024-01-27T09:04:36;18.17;;;7.25;;
55220;SDS011;41089;51.448;6.604;2024-01-27T09:10:38;21.55;;;7.40;;
55220;SDS011;41089;51.448;6.604;2024-01-27T09:16:38;18.75;;;6.10;;
55220;SDS011;41089;51.448;6.604;2024-01-27T09:22:40;15.73;;;6.65;;
55220;SDS011;41089;51.448;6.604;2024-01-27T09:28:41;20.67;;;7.25;;
55220;SDS011;41089;51.448;6.604;2024-01-27T09:34:43;25.85;;;7.75;;
55220;SDS011;41089;51.448;6.604;2024-01-27T09:40:44;24.67;;;7.18;;
55220;SDS011;41089;51.448;6.604;2024-01-27T09:46:45;16.25;;;6.82;;
55220;SDS011;41089;51.448;6.604;2024-01-27T09:52:47;25.38;;;8.07;;
55220;SDS011;41089;51.448;6.604;2024-01-27T09:58:49;21.27;;;6.55;;
55220;SDS011;41089;51.448;6.604;2024-01-27T10:04:50;22.38;;;7.18;;
55220;SDS011;41089;51.448;6.604;2024-01-27T10:10:54;20.40;;;6.85;;
55220;SDS011;41089;51.448;6.604;2024-01-27T10:16:56;20.08;;;6.45;;
55220;SDS011;41089;51.448;6.604;2024-01-27T10:22:56;20.33;;;6.43;;
55220;SDS011;41089;51.448;6.604;2024-01-27T10:28:57;17.37;;;6.23;;
55220;SDS011;41089;51.448;6.604;2024-01-27T10:35:07;23.30;;;6.35;;
55220;SDS011;41089;51.448;6.604;2024-01-27T10:41:09;16.40;;;6.15;;
55220;SDS011;41089;51.448;6.604;2024-01-27T10:47:12;16.55;;;6.53;;
55220;SDS011;41089;51.448;6.604;2024-01-27T10:53:23;25.02;;;5.93;;
55220;SDS011;41089;51.448;6.604;2024-01-27T10:59:26;16.08;;;6.20;;
55220;SDS011;41089;51.448;6.604;2024-01-27T11:05:28;21.83;;;5.68;;
55220;SDS011;41089;51.448;6.604;2024-01-27T11:11:31;18.33;;;5.57;;
55220;SDS011;41089;51.448;6.604;2024-01-27T11:17:41;17.15;;;6.00;;
55220;SDS011;41089;51.448;6.604;2024-01-27T11:23:42;20.00;;;5.33;;
55220;SDS011;41089;51.448;6.604;2024-01-27T11:29:46;21.73;;;6.03;;
55220;SDS011;41089;51.448;6.604;2024-01-27T11:35:47;22.05;;;6.38;;
55220;SDS011;41089;51.448;6.604;2024-01-27T11:41:48;19.70;;;6.25;;
55220;SDS011;41089;51.448;6.604;2024-01-27T11:47:48;20.42;;;6.13;;
55220;SDS011;41089;51.448;6.604;2024-01-27T11:53:49;18.50;;;5.63;;
55220;SDS011;41089;51.448;6.604;2024-01-27T11:59:53;15.15;;;5.07;;
55220;SDS011;41089;51.448;6.604;2024-01-27T12:05:54;18.10;;;4.65;;
55220;SDS011;41089;51.448;6.604;2024-01-27T12:11:55;18.90;;;6.70;;
55220;SDS011;41089;51.448;6.604;2024-01-27T12:17:55;14.67;;;5.00;;
55220;SDS011;41089;51.448;6.604;2024-01-27T12:23:56;13.68;;;5.13;;
55220;SDS011;41089;51.448;6.604;2024-01-27T12:29:57;15.93;;;4.30;;
55220;SDS011;41089;51.448;6.604;2024-01-27T12:35:58;13.10;;;3.27;;
55220;SDS011;41089;51.448;6.604;2024-01-27T12:41:58;14.37;;;4.20;;
55220;SDS011;41089;51.448;6.604;2024-01-27T12:47:58;17.52;;;4.78;;
55220;SDS011;41089;51.448;6.604;2024-01-27T12:53:59;19.07;;;4.20;;
55220;SDS011;41089;51.448;6.604;2024-01-27T13:00:00;12.60;;;3.50;;
55220;SDS011;41089;51.448;6.604;2024-01-27T13:06:00;12.85;;;3.92;;
55220;SDS011;41089;51.448;6.604;2024-01-27T13:12:01;16.17;;;3.72;;
55220;SDS011;41089;51.448;6.604;2024-01-27T13:18:02;11.75;;;3.28;;
55220;SDS011;41089;51.448;6.604;2024-01-27T13:24:04;17.08;;;4.18;;
55220;SDS011;41089;51.448;6.604;2024-01-27T13:30:05;10.15;;;2.95;;
55220;SDS011;41089;51.448;6.604;2024-01-27T13:36:05;12.45;;;3.63;;
55220;SDS011;41089;51.448;6.604;2024-01-27T13:42:06;11.15;;;3.00;;
55220;SDS011;41089;51.448;6.604;2024-01-27T13:48:07;8.35;;;3.40;;
55220;SDS011;41089;51.448;6.604;2024-01-27T13:54:07;12.60;;;4.22;;
55220;SDS011;41089;51.448;6.604;2024-01-27T14:00:09;11.70;;;3.67;;
55220;SDS011;41089;51.448;6.604;2024-01-27T14:06:10;11.90;;;4.68;;
55220;SDS011;41089;51.448;6.604;2024-01-27T14:12:12;12.95;;;4.43;;
55220;SDS011;41089;51.448;6.604;2024-01-27T14:18:12;12.50;;;4.85;;
55220;SDS011;41089;51.448;6.604;2024-01-27T14:24:20;13.07;;;3.33;;
55220;SDS011;41089;51.448;6.604;2024-01-27T14:30:21;13.55;;;3.88;;
55220;SDS011;41089;51.448;6.604;2024-01-27T14:36:21;20.60;;;3.25;;
55220;SDS011;41089;51.448;6.604;2024-01-27T14:42:23;12.73;;;3.05;;
55220;SDS011;41089;51.448;6.604;2024-01-27T14:48:23;12.00;;;3.70;;
55220;SDS011;41089;51.448;6.604;2024-01-27T14:54:24;9.10;;;3.10;;
55220;SDS011;41089;51.448;6.604;2024-01-27T15:00:24;9.17;;;3.03;;
55220;SDS011;41089;51.448;6.604;2024-01-27T15:06:26;11.55;;;3.03;;
55220;SDS011;41089;51.448;6.604;2024-01-27T15:12:28;10.30;;;2.95;;
55220;SDS011;41089;51.448;6.604;2024-01-27T15:18:28;11.18;;;3.05;;
55220;SDS011;41089;51.448;6.604;2024-01-27T15:24:29;12.70;;;3.60;;
55220;SDS011;41089;51.448;6.604;2024-01-27T15:30:33;12.75;;;4.60;;
55220;SDS011;41089;51.448;6.604;2024-01-27T15:36:33;15.63;;;3.88;;
55220;SDS011;41089;51.448;6.604;2024-01-27T15:42:34;11.00;;;3.30;;
55220;SDS011;41089;51.448;6.604;2024-01-27T15:48:34;8.93;;;2.45;;
55220;SDS011;41089;51.448;6.604;2024-01-27T15:54:36;13.40;;;3.22;;
55220;SDS011;41089;51.448;6.604;2024-01-27T16:00:39;15.35;;;3.58;;
55220;SDS011;41089;51.448;6.604;2024-01-27T16:06:39;9.48;;;3.22;;
55220;SDS011;41089;51.448;6.604;2024-01-27T16:12:40;18.23;;;3.65;;
55220;SDS011;41089;51.448;6.604;2024-01-27T16:18:41;13.00;;;4.05;;
55220;SDS011;41089;51.448;6.604;2024-01-27T16:24:41;11.88;;;4.25;;
55220;SDS011;41089;51.448;6.604;2024-01-27T16:30:42;15.50;;;4.20;;
55220;SDS011;41089;51.448;6.604;2024-01-27T16:36:43;11.27;;;3.90;;
55220;SDS011;41089;51.448;6.604;2024-01-27T16:42:44;10.43;;;4.30;;
55220;SDS011;41089;51.448;6.604;2024-01-27T16:48:45;9.35;;;3.65;;
55220;SDS011;41089;51.448;6.604;2024-01-27T16:54:45;11.77;;;3.87;;
55220;SDS011;41089;51.448;6.604;2024-01-27T17:00:46;15.50;;;4.97;;
55220;SDS011;41089;51.448;6.604;2024-01-27T17:06:46;11.25;;;4.30;;
55220;SDS011;41089;51.448;6.604;2024-01-27T17:12:47;10.13;;;4.00;;
55220;SDS011;41089;51.448;6.604;2024-01-27T17:18:47;14.23;;;4.43;;
55220;SDS011;41089;51.448;6.604;2024-01-27T17:24:48;17.85;;;4.63;;
55220;SDS011;41089;51.448;6.604;2024-01-27T17:30:49;15.35;;;4.07;;
55220;SDS011;41089;51.448;6.604;2024-01-27T17:36:49;10.80;;;3.92;;
55220;SDS011;41089;51.448;6.604;2024-01-27T17:42:51;12.05;;;4.10;;
55220;SDS011;41089;51.448;6.604;2024-01-27T17:48:52;12.50;;;4.47;;
55220;SDS011;41089;51.448;6.604;2024-01-27T17:54:52;13.93;;;4.53;;
55220;SDS011;41089;51.448;6.604;2024-01-27T18:00:52;11.63;;;4.88;;
55220;SDS011;41089;51.448;6.604;2024-01-27T18:06:53;12.55;;;4.68;;
55220;SDS011;41089;51.448;6.604;2024-01-27T18:12:54;11.43;;;4.22;;
55220;SDS011;41089;51.448;6.604;2024-01-27T18:18:55;16.90;;;5.45;;
55220;SDS011;41089;51.448;6.604;2024-01-27T18:24:55;14.10;;;5.97;;
55220;SDS011;41089;51.448;6.604;2024-01-27T18:30:57;15.38;;;6.72;;
55220;SDS011;41089;51.448;6.604;2024-01-27T18:36:57;14.40;;;5.87;;
55220;SDS011;41089;51.448;6.604;2024-01-27T18:42:58;20.03;;;8.07;;
55220;SDS011;41089;51.448;6.604;2024-01-27T18:48:58;20.43;;;7.47;;
55220;SDS011;41089;51.448;6.604;2024-01-27T18:54:58;16.55;;;7.95;;
55220;SDS011;41089;51.448;6.604;2024-01-27T19:00:59;18.17;;;7.60;;
55220;SDS011;41089;51.448;6.604;2024-01-27T19:06:59;16.73;;;7.73;;
55220;SDS011;41089;51.448;6.604;2024-01-27T19:13:00;13.60;;;6.82;;
55220;SDS011;41089;51.448;6.604;2024-01-27T19:19:00;19.75;;;6.75;;
55220;SDS011;41089;51.448;6.604;2024-01-27T19:25:01;12.77;;;6.75;;
55220;SDS011;41089;51.448;6.604;2024-01-27T19:31:02;16.83;;;6.87;;
55220;SDS011;41089;51.448;6.604;2024-01-27T19:37:02;19.45;;;8.27;;
55220;SDS011;41089;51.448;6.604;2024-01-27T19:43:03;15.55;;;6.00;;
55220;SDS011;41089;51.448;6.604;2024-01-27T19:49:03;13.60;;;6.53;;
55220;SDS011;41089;51.448;6.604;2024-01-27T19:55:04;18.07;;;6.77;;
55220;SDS011;41089;51.448;6.604;2024-01-27T20:01:06;12.57;;;5.50;;
55220;SDS011;41089;51.448;6.604;2024-01-27T20:07:06;20.42;;;6.93;;
55220;SDS011;41089;51.448;6.604;2024-01-27T20:13:07;18.37;;;7.70;;
55220;SDS011;41089;51.448;6.604;2024-01-27T20:19:08;20.02;;;7.65;;
55220;SDS011;41089;51.448;6.604;2024-01-27T20:25:09;17.17;;;7.88;;
55220;SDS011;41089;51.448;6.604;2024-01-27T20:31:10;15.48;;;7.32;;
55220;SDS011;41089;51.448;6.604;2024-01-27T20:37:10;14.65;;;7.20;;
55220;SDS011;41089;51.448;6.604;2024-01-27T20:43:11;15.45;;;6.78;;
55220;SDS011;41089;51.448;6.604;2024-01-27T20:49:11;17.83;;;7.00;;
55220;SDS011;41089;51.448;6.604;2024-01-27T20:55:12;14.37;;;6.93;;
55220;SDS011;41089;51.448;6.604;2024-01-27T21:01:12;26.73;;;9.67;;
55220;SDS011;41089;51.448;6.604;2024-01-27T21:07:13;18.47;;;10.67;;
55220;SDS011;41089;51.448;6.604;2024-01-27T21:13:18;23.52;;;10.07;;
55220;SDS011;41089;51.448;6.604;2024-01-27T21:19:19;16.63;;;9.02;;
55220;SDS011;41089;51.448;6.604;2024-01-27T21:25:19;18.75;;;8.15;;
55220;SDS011;41089;51.448;6.604;2024-01-27T21:31:20;13.80;;;6.40;;
55220;SDS011;41089;51.448;6.604;2024-01-27T21:37:20;17.55;;;6.10;;
55220;SDS011;41089;51.448;6.604;2024-01-27T21:43:20;16.47;;;5.97;;
55220;SDS011;41089;51.448;6.604;2024-01-27T21:49:21;16.00;;;5.32;;
55220;SDS011;41089;51.448;6.604;2024-01-27T21:55:21;12.63;;;4.70;;
55220;SDS011;41089;51.448;6.604;2024-01-27T22:01:22;12.35;;;5.05;;
55220;SDS011;41089;51.448;6.604;2024-01-27T22:07:22;15.85;;;5.57;;
55220;SDS011;41089;51.448;6.604;2024-01-27T22:13:23;14.48;;;4.90;;
55220;SDS011;41089;51.448;6.604;2024-01-27T22:19:24;17.23;;;4.72;;
55220;SDS011;41089;51.448;6.604;2024-01-27T22:25:24;11.15;;;3.85;;
55220;SDS011;41089;51.448;6.604;2024-01-27T22:31:25;14.35;;;4.82;;
55220;SDS011;41089;51.448;6.604;2024-01-27T22:37:29;11.07;;;4.90;;
55220;SDS011;41089;51.448;6.604;2024-01-27T22:43:30;13.32;;;4.85;;
55220;SDS011;41089;51.448;6.604;2024-01-27T22:49:30;15.70;;;4.73;;
55220;SDS011;41089;51.448;6.604;2024-01-27T22:55:31;13.48;;;6.13;;
55220;SDS011;41089;51.448;6.604;2024-01-27T23:01:31;20.70;;;9.37;;
55220;SDS011;41089;51.448;6.604;2024-01-27T23:07:32;19.48;;;10.38;;
55220;SDS011;41089;51.448;6.604;2024-01-27T23:13:32;22.58;;;9.32;;
55220;SDS011;41089;51.448;6.604;2024-01-27T23:19:32;19.55;;;8.95;;
55220;SDS011;41089;51.448;6.604;2024-01-27T23:25:36;12.45;;;5.43;;
55220;SDS011;41089;51.448;6.604;2024-01-27T23:31:37;13.77;;;4.72;;
55220;SDS011;41089;51.448;6.604;2024-01-27T23:37:38;11.05;;;4.85;;
55220;SDS011;41089;51.448;6.604;2024-01-27T23:43:38;18.42;;;4.90;;
55220;SDS011;41089;51.448;6.604;2024-01-27T23:49:39;16.30;;;5.03;;
55220;SDS011;41089;51.448;6.604;2024-01-27T23:55:39;11.27;;;4.57;;
